This is the latest recevied weather packets stored in our database for station/object N5AEH. If no packets are shown the sender has not sent any weather packets the latest 1 day(s).
| Time | Temp. | Humidity | Pressure | Rain* | Wind** | Luminosity | Snow |
|---|---|---|---|---|---|---|---|
| 1777991864 | 22.78° C | 44% | 1010.7 hPa | 0 mm | 0 m/s | 242 W/m² | - |
| 1777991561 | 21.67° C | 48% | 1010.8 hPa | 0 mm | 0 m/s | 488 W/m² | - |
| 1777991258 | 21.11° C | 49% | 1010.7 hPa | 0 mm | 0 m/s | 439 W/m² | - |
| 1777990955 | 20.56° C | 49% | 1010.5 hPa | 0 mm | 0.45 m/s, 216° | 433 W/m² | - |
| 1777990653 | 20° C | 49% | 1011.1 hPa | 0 mm | 0.45 m/s, 209° | 310 W/m² | - |
| 1777990350 | 20° C | 50% | 1011.1 hPa | 0 mm | 0.45 m/s, 198° | 337 W/m² | - |
| 1777990046 | 20° C | 50% | 1011 hPa | 0 mm | 0.45 m/s, 210° | 192 W/m² | - |
| 1777989743 | 19.44° C | 50% | 1011.2 hPa | 0 mm | 0.89 m/s, 81° | 495 W/m² | - |
| 1777989440 | 18.33° C | 53% | 1011 hPa | 0 mm | 0.45 m/s, 127° | 289 W/m² | - |
| 1777989136 | 18.33° C | 53% | 1011.2 hPa | 0 mm | 1.34 m/s, 52° | 188 W/m² | - |
| 1777988831 | 18.89° C | 52% | 1011.1 hPa | 0 mm | 0.45 m/s, 178° | 165 W/m² | - |
| 1777988530 | 18.89° C | 51% | 1011 hPa | 0 mm | 0.45 m/s, 167° | 161 W/m² | - |
| 1777988226 | 18.33° C | 52% | 1011.2 hPa | 0 mm | 0.45 m/s, 193° | 273 W/m² | - |
| 1777987922 | 17.78° C | 53% | 1011 hPa | 0 mm | 0.45 m/s, 132° | 330 W/m² | - |
| 1777987618 | 17.22° C | 53% | 1011.3 hPa | 0 mm | 0.45 m/s, 201° | 352 W/m² | - |
| 1777987316 | 16.67° C | 54% | 1010.9 hPa | 0 mm | 0 m/s | 425 W/m² | - |
| 1777987013 | 16.11° C | 56% | 1011.1 hPa | 0 mm | 0.45 m/s, 170° | 335 W/m² | - |
| 1777986711 | 15.56° C | 58% | 1011.3 hPa | 0 mm | 0.45 m/s, 140° | 460 W/m² | - |
| 1777986408 | 16.11° C | 57% | 1011.2 hPa | 0 mm | 0.89 m/s, 85° | 124 W/m² | - |
| 1777986107 | 16.11° C | 57% | 1011.2 hPa | 0 mm | 0.45 m/s, 208° | 379 W/m² | - |
| 1777985803 | 15.56° C | 57% | 1011.2 hPa | 0 mm | 0.89 m/s, 115° | 398 W/m² | - |
| 1777985500 | 13.89° C | 61% | 1011.2 hPa | 0 mm | 1.34 m/s, 63° | 399 W/m² | - |
| 1777985197 | 13.89° C | 63% | 1011.3 hPa | 0 mm | 0 m/s | 150 W/m² | - |
| 1777984893 | 13.89° C | 64% | 1011.7 hPa | 0 mm | 0.45 m/s, 196° | 204 W/m² | - |
| 1777984589 | 13.89° C | 63% | 1011.6 hPa | 0 mm | 0.45 m/s, 202° | 102 W/m² | - |
* Rain latest hour (hover to see other rain measurements)
** Current wind speed in m/s (hover to see current wind gust speed)